sensor_id;sensor_type;location;lat;lon;timestamp;P1;durP1;ratioP1;P2;durP2;ratioP2
28481;SDS011;15703;49.588;6.260;2024-01-15T00:00:05;54.60;;;21.80;;
28481;SDS011;15703;49.588;6.260;2024-01-15T00:02:30;54.37;;;21.20;;
28481;SDS011;15703;49.588;6.260;2024-01-15T00:04:53;62.00;;;22.40;;
28481;SDS011;15703;49.588;6.260;2024-01-15T00:07:15;61.70;;;23.97;;
28481;SDS011;15703;49.588;6.260;2024-01-15T00:09:39;53.30;;;18.47;;
28481;SDS011;15703;49.588;6.260;2024-01-15T00:12:01;50.07;;;19.57;;
28481;SDS011;15703;49.588;6.260;2024-01-15T00:14:24;59.97;;;22.37;;
28481;SDS011;15703;49.588;6.260;2024-01-15T00:16:46;60.10;;;22.10;;
28481;SDS011;15703;49.588;6.260;2024-01-15T00:19:10;62.17;;;22.87;;
28481;SDS011;15703;49.588;6.260;2024-01-15T00:21:33;52.80;;;20.93;;
28481;SDS011;15703;49.588;6.260;2024-01-15T00:23:55;60.23;;;22.30;;
28481;SDS011;15703;49.588;6.260;2024-01-15T00:26:17;56.57;;;22.30;;
28481;SDS011;15703;49.588;6.260;2024-01-15T00:28:40;56.20;;;21.47;;
28481;SDS011;15703;49.588;6.260;2024-01-15T00:31:02;52.70;;;20.17;;
28481;SDS011;15703;49.588;6.260;2024-01-15T00:33:25;58.80;;;20.50;;
28481;SDS011;15703;49.588;6.260;2024-01-15T00:35:48;59.67;;;21.70;;
28481;SDS011;15703;49.588;6.260;2024-01-15T00:38:10;50.37;;;19.83;;
28481;SDS011;15703;49.588;6.260;2024-01-15T00:40:32;58.03;;;22.73;;
28481;SDS011;15703;49.588;6.260;2024-01-15T00:42:54;62.00;;;22.10;;
28481;SDS011;15703;49.588;6.260;2024-01-15T00:45:17;56.80;;;21.57;;
28481;SDS011;15703;49.588;6.260;2024-01-15T00:47:39;52.97;;;21.57;;
28481;SDS011;15703;49.588;6.260;2024-01-15T00:50:01;53.00;;;21.00;;
28481;SDS011;15703;49.588;6.260;2024-01-15T00:52:24;51.50;;;20.90;;
28481;SDS011;15703;49.588;6.260;2024-01-15T00:54:46;62.03;;;21.37;;
28481;SDS011;15703;49.588;6.260;2024-01-15T00:57:09;60.13;;;22.97;;
28481;SDS011;15703;49.588;6.260;2024-01-15T00:59:31;56.27;;;20.33;;
28481;SDS011;15703;49.588;6.260;2024-01-15T01:01:54;61.00;;;21.50;;
28481;SDS011;15703;49.588;6.260;2024-01-15T01:04:16;58.97;;;22.40;;
28481;SDS011;15703;49.588;6.260;2024-01-15T01:06:39;59.23;;;21.77;;
28481;SDS011;15703;49.588;6.260;2024-01-15T01:09:01;53.97;;;20.23;;
28481;SDS011;15703;49.588;6.260;2024-01-15T01:11:24;56.10;;;21.90;;
28481;SDS011;15703;49.588;6.260;2024-01-15T01:13:47;60.27;;;21.07;;
28481;SDS011;15703;49.588;6.260;2024-01-15T01:16:09;56.50;;;21.27;;
28481;SDS011;15703;49.588;6.260;2024-01-15T01:18:32;61.07;;;22.57;;
28481;SDS011;15703;49.588;6.260;2024-01-15T01:20:54;53.87;;;21.03;;
28481;SDS011;15703;49.588;6.260;2024-01-15T01:23:17;60.67;;;21.80;;
28481;SDS011;15703;49.588;6.260;2024-01-15T01:25:39;46.83;;;21.20;;
28481;SDS011;15703;49.588;6.260;2024-01-15T01:28:01;54.30;;;21.23;;
28481;SDS011;15703;49.588;6.260;2024-01-15T01:30:24;53.83;;;20.50;;
28481;SDS011;15703;49.588;6.260;2024-01-15T01:32:46;52.67;;;19.50;;
28481;SDS011;15703;49.588;6.260;2024-01-15T01:35:09;59.07;;;21.43;;
28481;SDS011;15703;49.588;6.260;2024-01-15T01:37:31;55.07;;;20.40;;
28481;SDS011;15703;49.588;6.260;2024-01-15T01:39:55;54.43;;;21.60;;
28481;SDS011;15703;49.588;6.260;2024-01-15T01:42:17;56.20;;;20.63;;
28481;SDS011;15703;49.588;6.260;2024-01-15T01:44:40;59.20;;;21.67;;
28481;SDS011;15703;49.588;6.260;2024-01-15T01:47:02;55.10;;;21.17;;
28481;SDS011;15703;49.588;6.260;2024-01-15T01:49:26;60.13;;;21.70;;
28481;SDS011;15703;49.588;6.260;2024-01-15T01:51:49;57.40;;;21.30;;
28481;SDS011;15703;49.588;6.260;2024-01-15T01:54:12;61.93;;;22.23;;
28481;SDS011;15703;49.588;6.260;2024-01-15T01:56:35;52.87;;;21.83;;
28481;SDS011;15703;49.588;6.260;2024-01-15T01:58:58;51.13;;;22.50;;
28481;SDS011;15703;49.588;6.260;2024-01-15T02:01:22;61.77;;;21.27;;
28481;SDS011;15703;49.588;6.260;2024-01-15T02:03:45;58.70;;;22.60;;
28481;SDS011;15703;49.588;6.260;2024-01-15T02:06:07;52.80;;;21.47;;
28481;SDS011;15703;49.588;6.260;2024-01-15T02:30:11;57.90;;;21.30;;
28481;SDS011;15703;49.588;6.260;2024-01-15T02:32:34;53.27;;;22.20;;
28481;SDS011;15703;49.588;6.260;2024-01-15T02:34:56;53.53;;;22.73;;
28481;SDS011;15703;49.588;6.260;2024-01-15T02:37:19;56.00;;;22.03;;
28481;SDS011;15703;49.588;6.260;2024-01-15T02:39:42;58.53;;;23.80;;
28481;SDS011;15703;49.588;6.260;2024-01-15T02:42:04;48.97;;;21.87;;
28481;SDS011;15703;49.588;6.260;2024-01-15T02:44:27;56.77;;;22.33;;
28481;SDS011;15703;49.588;6.260;2024-01-15T02:46:49;45.73;;;20.83;;
28481;SDS011;15703;49.588;6.260;2024-01-15T02:49:11;49.03;;;22.93;;
28481;SDS011;15703;49.588;6.260;2024-01-15T02:51:34;55.13;;;21.67;;
28481;SDS011;15703;49.588;6.260;2024-01-15T02:53:56;47.43;;;20.90;;
28481;SDS011;15703;49.588;6.260;2024-01-15T02:56:19;59.10;;;22.47;;
28481;SDS011;15703;49.588;6.260;2024-01-15T02:58:41;62.83;;;22.93;;
28481;SDS011;15703;49.588;6.260;2024-01-15T03:01:03;59.53;;;23.03;;
28481;SDS011;15703;49.588;6.260;2024-01-15T03:03:26;54.97;;;21.87;;
28481;SDS011;15703;49.588;6.260;2024-01-15T03:05:49;58.80;;;22.17;;
28481;SDS011;15703;49.588;6.260;2024-01-15T03:08:12;57.50;;;21.83;;
28481;SDS011;15703;49.588;6.260;2024-01-15T03:10:35;48.67;;;21.10;;
28481;SDS011;15703;49.588;6.260;2024-01-15T03:12:57;58.70;;;23.17;;
28481;SDS011;15703;49.588;6.260;2024-01-15T03:15:20;60.43;;;23.67;;
28481;SDS011;15703;49.588;6.260;2024-01-15T03:17:42;62.93;;;22.60;;
28481;SDS011;15703;49.588;6.260;2024-01-15T03:20:05;60.07;;;24.03;;
28481;SDS011;15703;49.588;6.260;2024-01-15T03:22:27;59.23;;;22.90;;
28481;SDS011;15703;49.588;6.260;2024-01-15T03:24:50;65.33;;;23.23;;
28481;SDS011;15703;49.588;6.260;2024-01-15T03:27:13;58.00;;;23.77;;
28481;SDS011;15703;49.588;6.260;2024-01-15T03:29:35;61.37;;;23.30;;
28481;SDS011;15703;49.588;6.260;2024-01-15T03:31:57;62.37;;;23.80;;
28481;SDS011;15703;49.588;6.260;2024-01-15T03:34:20;56.00;;;23.43;;
28481;SDS011;15703;49.588;6.260;2024-01-15T03:36:42;54.23;;;21.83;;
28481;SDS011;15703;49.588;6.260;2024-01-15T03:39:05;51.10;;;22.67;;
28481;SDS011;15703;49.588;6.260;2024-01-15T03:41:27;54.13;;;22.60;;
28481;SDS011;15703;49.588;6.260;2024-01-15T03:43:50;49.57;;;21.53;;
28481;SDS011;15703;49.588;6.260;2024-01-15T03:46:12;47.87;;;21.07;;
28481;SDS011;15703;49.588;6.260;2024-01-15T03:48:34;51.90;;;22.07;;
28481;SDS011;15703;49.588;6.260;2024-01-15T03:50:57;56.23;;;21.47;;
28481;SDS011;15703;49.588;6.260;2024-01-15T03:53:19;48.87;;;21.37;;
28481;SDS011;15703;49.588;6.260;2024-01-15T03:55:42;48.10;;;22.80;;
28481;SDS011;15703;49.588;6.260;2024-01-15T03:58:04;52.10;;;22.27;;
28481;SDS011;15703;49.588;6.260;2024-01-15T04:00:27;49.83;;;20.67;;
28481;SDS011;15703;49.588;6.260;2024-01-15T04:02:49;51.13;;;21.37;;
28481;SDS011;15703;49.588;6.260;2024-01-15T04:05:11;52.03;;;21.73;;
28481;SDS011;15703;49.588;6.260;2024-01-15T04:07:34;50.97;;;22.50;;
28481;SDS011;15703;49.588;6.260;2024-01-15T04:09:56;47.77;;;22.20;;
28481;SDS011;15703;49.588;6.260;2024-01-15T04:12:19;50.33;;;22.37;;
28481;SDS011;15703;49.588;6.260;2024-01-15T04:14:41;52.40;;;22.87;;
28481;SDS011;15703;49.588;6.260;2024-01-15T04:17:03;52.33;;;22.93;;
28481;SDS011;15703;49.588;6.260;2024-01-15T04:19:26;55.40;;;23.10;;
28481;SDS011;15703;49.588;6.260;2024-01-15T04:21:48;48.60;;;22.40;;
28481;SDS011;15703;49.588;6.260;2024-01-15T04:24:11;54.70;;;24.40;;
28481;SDS011;15703;49.588;6.260;2024-01-15T04:26:33;55.13;;;22.73;;
28481;SDS011;15703;49.588;6.260;2024-01-15T04:28:55;43.30;;;20.27;;
28481;SDS011;15703;49.588;6.260;2024-01-15T04:31:25;48.57;;;21.53;;
28481;SDS011;15703;49.588;6.260;2024-01-15T04:33:51;48.17;;;21.53;;
28481;SDS011;15703;49.588;6.260;2024-01-15T04:36:13;54.43;;;22.00;;
28481;SDS011;15703;49.588;6.260;2024-01-15T04:38:36;43.87;;;20.27;;
28481;SDS011;15703;49.588;6.260;2024-01-15T04:40:58;51.27;;;21.70;;
28481;SDS011;15703;49.588;6.260;2024-01-15T04:43:20;43.40;;;20.93;;
28481;SDS011;15703;49.588;6.260;2024-01-15T04:45:43;46.03;;;21.97;;
28481;SDS011;15703;49.588;6.260;2024-01-15T04:48:05;50.83;;;23.53;;
28481;SDS011;15703;49.588;6.260;2024-01-15T04:50:28;50.83;;;22.93;;
28481;SDS011;15703;49.588;6.260;2024-01-15T04:52:51;40.67;;;20.73;;
28481;SDS011;15703;49.588;6.260;2024-01-15T04:55:14;48.00;;;21.50;;
28481;SDS011;15703;49.588;6.260;2024-01-15T04:57:36;48.63;;;23.07;;
28481;SDS011;15703;49.588;6.260;2024-01-15T04:59:59;44.60;;;20.90;;
28481;SDS011;15703;49.588;6.260;2024-01-15T05:02:21;48.40;;;22.23;;
28481;SDS011;15703;49.588;6.260;2024-01-15T05:04:43;49.80;;;22.30;;
28481;SDS011;15703;49.588;6.260;2024-01-15T05:07:06;49.40;;;22.17;;
28481;SDS011;15703;49.588;6.260;2024-01-15T05:09:29;51.77;;;21.90;;
28481;SDS011;15703;49.588;6.260;2024-01-15T05:11:53;48.03;;;22.70;;
28481;SDS011;15703;49.588;6.260;2024-01-15T05:14:16;52.27;;;21.80;;
28481;SDS011;15703;49.588;6.260;2024-01-15T05:16:38;52.00;;;23.30;;
28481;SDS011;15703;49.588;6.260;2024-01-15T05:19:01;49.43;;;21.43;;
28481;SDS011;15703;49.588;6.260;2024-01-15T05:21:24;48.50;;;21.63;;
28481;SDS011;15703;49.588;6.260;2024-01-15T05:23:46;46.67;;;20.73;;
28481;SDS011;15703;49.588;6.260;2024-01-15T05:26:09;41.00;;;20.10;;
28481;SDS011;15703;49.588;6.260;2024-01-15T05:28:31;43.40;;;20.13;;
28481;SDS011;15703;49.588;6.260;2024-01-15T05:30:54;45.77;;;19.73;;
28481;SDS011;15703;49.588;6.260;2024-01-15T05:33:17;43.53;;;20.00;;
28481;SDS011;15703;49.588;6.260;2024-01-15T05:35:39;39.73;;;20.00;;
28481;SDS011;15703;49.588;6.260;2024-01-15T05:38:01;44.43;;;20.33;;
28481;SDS011;15703;49.588;6.260;2024-01-15T05:40:24;49.17;;;20.30;;
28481;SDS011;15703;49.588;6.260;2024-01-15T05:42:47;43.33;;;20.70;;
28481;SDS011;15703;49.588;6.260;2024-01-15T05:45:10;40.30;;;19.57;;
28481;SDS011;15703;49.588;6.260;2024-01-15T05:47:32;39.20;;;19.30;;
28481;SDS011;15703;49.588;6.260;2024-01-15T05:49:55;43.87;;;19.00;;
28481;SDS011;15703;49.588;6.260;2024-01-15T05:52:18;43.83;;;20.23;;
28481;SDS011;15703;49.588;6.260;2024-01-15T05:54:42;40.07;;;21.17;;
28481;SDS011;15703;49.588;6.260;2024-01-15T05:57:04;45.37;;;19.07;;
28481;SDS011;15703;49.588;6.260;2024-01-15T05:59:27;44.30;;;21.23;;
28481;SDS011;15703;49.588;6.260;2024-01-15T06:01:53;43.47;;;21.53;;
28481;SDS011;15703;49.588;6.260;2024-01-15T06:04:15;40.87;;;19.40;;
28481;SDS011;15703;49.588;6.260;2024-01-15T06:06:38;41.63;;;19.47;;
28481;SDS011;15703;49.588;6.260;2024-01-15T06:09:00;47.33;;;21.47;;
28481;SDS011;15703;49.588;6.260;2024-01-15T06:11:30;48.20;;;20.93;;
28481;SDS011;15703;49.588;6.260;2024-01-15T06:13:52;47.77;;;20.90;;
28481;SDS011;15703;49.588;6.260;2024-01-15T06:16:15;48.33;;;21.30;;
28481;SDS011;15703;49.588;6.260;2024-01-15T06:18:38;38.90;;;20.83;;
28481;SDS011;15703;49.588;6.260;2024-01-15T06:21:01;48.93;;;21.30;;
28481;SDS011;15703;49.588;6.260;2024-01-15T06:23:23;42.63;;;20.77;;
28481;SDS011;15703;49.588;6.260;2024-01-15T06:25:45;46.60;;;22.00;;
28481;SDS011;15703;49.588;6.260;2024-01-15T06:28:08;48.47;;;23.07;;
28481;SDS011;15703;49.588;6.260;2024-01-15T06:30:31;47.47;;;23.07;;
28481;SDS011;15703;49.588;6.260;2024-01-15T06:32:53;53.63;;;22.73;;
28481;SDS011;15703;49.588;6.260;2024-01-15T06:35:16;49.27;;;22.20;;
28481;SDS011;15703;49.588;6.260;2024-01-15T06:37:41;51.73;;;21.30;;
28481;SDS011;15703;49.588;6.260;2024-01-15T06:40:07;49.60;;;22.23;;
28481;SDS011;15703;49.588;6.260;2024-01-15T06:42:30;48.83;;;22.57;;
28481;SDS011;15703;49.588;6.260;2024-01-15T06:44:52;54.50;;;24.27;;
28481;SDS011;15703;49.588;6.260;2024-01-15T06:47:15;47.97;;;22.83;;
28481;SDS011;15703;49.588;6.260;2024-01-15T06:49:38;48.57;;;22.80;;
28481;SDS011;15703;49.588;6.260;2024-01-15T06:52:01;49.17;;;21.67;;
28481;SDS011;15703;49.588;6.260;2024-01-15T06:54:24;49.97;;;21.67;;
28481;SDS011;15703;49.588;6.260;2024-01-15T06:56:48;52.93;;;22.27;;
28481;SDS011;15703;49.588;6.260;2024-01-15T06:59:10;56.27;;;22.20;;
28481;SDS011;15703;49.588;6.260;2024-01-15T07:01:36;44.13;;;22.23;;
28481;SDS011;15703;49.588;6.260;2024-01-15T07:03:58;49.90;;;21.90;;
28481;SDS011;15703;49.588;6.260;2024-01-15T07:06:20;48.30;;;22.23;;
28481;SDS011;15703;49.588;6.260;2024-01-15T07:08:43;54.37;;;22.50;;
28481;SDS011;15703;49.588;6.260;2024-01-15T07:11:06;54.37;;;22.63;;
28481;SDS011;15703;49.588;6.260;2024-01-15T07:13:28;56.30;;;22.80;;
28481;SDS011;15703;49.588;6.260;2024-01-15T07:15:51;51.13;;;22.30;;
28481;SDS011;15703;49.588;6.260;2024-01-15T07:18:13;54.53;;;24.43;;
28481;SDS011;15703;49.588;6.260;2024-01-15T07:20:36;55.10;;;22.20;;
28481;SDS011;15703;49.588;6.260;2024-01-15T07:22:58;44.50;;;20.33;;
28481;SDS011;15703;49.588;6.260;2024-01-15T07:25:20;54.00;;;23.40;;
28481;SDS011;15703;49.588;6.260;2024-01-15T07:27:43;50.47;;;22.53;;
28481;SDS011;15703;49.588;6.260;2024-01-15T07:30:07;47.67;;;23.00;;
28481;SDS011;15703;49.588;6.260;2024-01-15T07:32:31;53.97;;;22.93;;
28481;SDS011;15703;49.588;6.260;2024-01-15T07:34:53;47.13;;;21.20;;
28481;SDS011;15703;49.588;6.260;2024-01-15T07:37:15;48.33;;;21.23;;
28481;SDS011;15703;49.588;6.260;2024-01-15T07:39:38;46.63;;;21.37;;
28481;SDS011;15703;49.588;6.260;2024-01-15T07:42:02;42.47;;;20.53;;
28481;SDS011;15703;49.588;6.260;2024-01-15T07:44:24;44.47;;;20.23;;
28481;SDS011;15703;49.588;6.260;2024-01-15T07:46:47;40.67;;;21.40;;
28481;SDS011;15703;49.588;6.260;2024-01-15T07:49:09;48.70;;;21.07;;
28481;SDS011;15703;49.588;6.260;2024-01-15T07:51:32;51.90;;;22.47;;
28481;SDS011;15703;49.588;6.260;2024-01-15T07:53:54;45.60;;;20.93;;
28481;SDS011;15703;49.588;6.260;2024-01-15T07:56:17;44.83;;;20.10;;
28481;SDS011;15703;49.588;6.260;2024-01-15T07:58:40;44.30;;;21.23;;
28481;SDS011;15703;49.588;6.260;2024-01-15T08:01:02;45.63;;;19.63;;
28481;SDS011;15703;49.588;6.260;2024-01-15T08:03:24;38.57;;;20.53;;
28481;SDS011;15703;49.588;6.260;2024-01-15T08:05:47;41.67;;;18.90;;
28481;SDS011;15703;49.588;6.260;2024-01-15T08:08:14;43.20;;;19.60;;
28481;SDS011;15703;49.588;6.260;2024-01-15T08:10:36;35.97;;;18.57;;
28481;SDS011;15703;49.588;6.260;2024-01-15T08:12:58;38.47;;;19.37;;
28481;SDS011;15703;49.588;6.260;2024-01-15T08:15:21;32.13;;;17.17;;
28481;SDS011;15703;49.588;6.260;2024-01-15T08:17:43;29.87;;;16.47;;
28481;SDS011;15703;49.588;6.260;2024-01-15T08:20:06;28.60;;;16.00;;
28481;SDS011;15703;49.588;6.260;2024-01-15T08:22:28;34.77;;;18.23;;
28481;SDS011;15703;49.588;6.260;2024-01-15T08:24:52;31.43;;;16.87;;
28481;SDS011;15703;49.588;6.260;2024-01-15T08:27:16;27.60;;;13.80;;
28481;SDS011;15703;49.588;6.260;2024-01-15T08:29:39;23.87;;;14.83;;
28481;SDS011;15703;49.588;6.260;2024-01-15T08:32:01;27.17;;;14.57;;
28481;SDS011;15703;49.588;6.260;2024-01-15T08:34:24;23.83;;;13.93;;
28481;SDS011;15703;49.588;6.260;2024-01-15T08:36:49;27.87;;;15.17;;
28481;SDS011;15703;49.588;6.260;2024-01-15T08:39:11;27.03;;;14.97;;
28481;SDS011;15703;49.588;6.260;2024-01-15T08:41:34;31.60;;;13.90;;
28481;SDS011;15703;49.588;6.260;2024-01-15T08:43:56;24.83;;;14.40;;
28481;SDS011;15703;49.588;6.260;2024-01-15T08:46:19;22.87;;;13.87;;
28481;SDS011;15703;49.588;6.260;2024-01-15T08:48:41;22.07;;;13.93;;
28481;SDS011;15703;49.588;6.260;2024-01-15T08:51:04;23.23;;;14.27;;
28481;SDS011;15703;49.588;6.260;2024-01-15T08:53:26;26.23;;;13.17;;
28481;SDS011;15703;49.588;6.260;2024-01-15T08:55:49;25.03;;;14.87;;
28481;SDS011;15703;49.588;6.260;2024-01-15T08:58:12;25.07;;;14.13;;
28481;SDS011;15703;49.588;6.260;2024-01-15T09:00:34;24.83;;;14.80;;
28481;SDS011;15703;49.588;6.260;2024-01-15T09:02:57;26.90;;;14.67;;
28481;SDS011;15703;49.588;6.260;2024-01-15T09:05:19;29.90;;;14.90;;
28481;SDS011;15703;49.588;6.260;2024-01-15T09:07:42;29.23;;;15.13;;
28481;SDS011;15703;49.588;6.260;2024-01-15T09:10:04;23.33;;;14.67;;
28481;SDS011;15703;49.588;6.260;2024-01-15T09:12:28;29.70;;;15.70;;
28481;SDS011;15703;49.588;6.260;2024-01-15T09:14:51;25.70;;;15.80;;
28481;SDS011;15703;49.588;6.260;2024-01-15T09:17:15;26.03;;;14.90;;
28481;SDS011;15703;49.588;6.260;2024-01-15T09:19:37;30.77;;;15.97;;
28481;SDS011;15703;49.588;6.260;2024-01-15T09:22:03;28.40;;;15.57;;
28481;SDS011;15703;49.588;6.260;2024-01-15T09:24:26;27.57;;;16.73;;
28481;SDS011;15703;49.588;6.260;2024-01-15T09:26:50;30.53;;;15.73;;
28481;SDS011;15703;49.588;6.260;2024-01-15T09:29:18;32.57;;;16.93;;
28481;SDS011;15703;49.588;6.260;2024-01-15T09:31:41;31.90;;;16.07;;
28481;SDS011;15703;49.588;6.260;2024-01-15T09:34:04;30.57;;;16.70;;
28481;SDS011;15703;49.588;6.260;2024-01-15T09:36:26;27.53;;;15.17;;
28481;SDS011;15703;49.588;6.260;2024-01-15T09:38:49;28.20;;;16.77;;
28481;SDS011;15703;49.588;6.260;2024-01-15T09:41:11;31.97;;;16.77;;
28481;SDS011;15703;49.588;6.260;2024-01-15T09:43:36;29.23;;;16.20;;
28481;SDS011;15703;49.588;6.260;2024-01-15T09:45:59;32.77;;;15.43;;
28481;SDS011;15703;49.588;6.260;2024-01-15T09:48:22;27.43;;;16.47;;
28481;SDS011;15703;49.588;6.260;2024-01-15T09:50:45;25.03;;;14.77;;
28481;SDS011;15703;49.588;6.260;2024-01-15T09:53:07;26.43;;;14.93;;
28481;SDS011;15703;49.588;6.260;2024-01-15T09:55:31;24.80;;;15.53;;
28481;SDS011;15703;49.588;6.260;2024-01-15T09:57:54;27.90;;;14.20;;
28481;SDS011;15703;49.588;6.260;2024-01-15T10:00:17;17.83;;;12.97;;
28481;SDS011;15703;49.588;6.260;2024-01-15T10:02:40;22.40;;;13.87;;
28481;SDS011;15703;49.588;6.260;2024-01-15T10:05:03;19.17;;;12.43;;
28481;SDS011;15703;49.588;6.260;2024-01-15T10:07:26;20.47;;;12.60;;
28481;SDS011;15703;49.588;6.260;2024-01-15T10:09:49;19.97;;;12.23;;
28481;SDS011;15703;49.588;6.260;2024-01-15T10:12:17;19.50;;;12.23;;
28481;SDS011;15703;49.588;6.260;2024-01-15T10:14:40;15.33;;;10.93;;
28481;SDS011;15703;49.588;6.260;2024-01-15T10:17:13;21.27;;;12.97;;
28481;SDS011;15703;49.588;6.260;2024-01-15T10:19:39;17.57;;;12.47;;
28481;SDS011;15703;49.588;6.260;2024-01-15T10:22:16;17.13;;;12.03;;
28481;SDS011;15703;49.588;6.260;2024-01-15T10:24:42;15.53;;;11.57;;
28481;SDS011;15703;49.588;6.260;2024-01-15T10:27:05;18.03;;;12.17;;
28481;SDS011;15703;49.588;6.260;2024-01-15T10:29:28;18.77;;;12.07;;
28481;SDS011;15703;49.588;6.260;2024-01-15T10:31:50;15.90;;;11.33;;
28481;SDS011;15703;49.588;6.260;2024-01-15T10:34:13;16.63;;;11.20;;
28481;SDS011;15703;49.588;6.260;2024-01-15T10:36:38;15.73;;;11.43;;
28481;SDS011;15703;49.588;6.260;2024-01-15T10:39:01;16.10;;;11.73;;
28481;SDS011;15703;49.588;6.260;2024-01-15T10:41:24;21.70;;;13.80;;
28481;SDS011;15703;49.588;6.260;2024-01-15T10:43:47;18.77;;;12.67;;
28481;SDS011;15703;49.588;6.260;2024-01-15T10:46:09;15.77;;;11.73;;
28481;SDS011;15703;49.588;6.260;2024-01-15T10:48:32;17.30;;;12.13;;
28481;SDS011;15703;49.588;6.260;2024-01-15T10:50:57;18.63;;;12.00;;
28481;SDS011;15703;49.588;6.260;2024-01-15T10:53:21;18.97;;;12.03;;
28481;SDS011;15703;49.588;6.260;2024-01-15T10:55:46;17.30;;;12.50;;
28481;SDS011;15703;49.588;6.260;2024-01-15T10:58:10;19.40;;;12.63;;
28481;SDS011;15703;49.588;6.260;2024-01-15T11:00:33;18.43;;;12.73;;
28481;SDS011;15703;49.588;6.260;2024-01-15T11:02:56;19.33;;;13.63;;
28481;SDS011;15703;49.588;6.260;2024-01-15T11:05:19;17.70;;;13.10;;
28481;SDS011;15703;49.588;6.260;2024-01-15T11:07:43;17.60;;;12.50;;
28481;SDS011;15703;49.588;6.260;2024-01-15T11:10:06;18.40;;;12.87;;
28481;SDS011;15703;49.588;6.260;2024-01-15T11:12:31;16.67;;;12.13;;
28481;SDS011;15703;49.588;6.260;2024-01-15T11:15:01;15.53;;;11.77;;
28481;SDS011;15703;49.588;6.260;2024-01-15T11:17:25;16.07;;;10.77;;
28481;SDS011;15703;49.588;6.260;2024-01-15T11:19:49;18.77;;;11.73;;
28481;SDS011;15703;49.588;6.260;2024-01-15T11:25:04;17.23;;;12.90;;
28481;SDS011;15703;49.588;6.260;2024-01-15T11:27:41;16.93;;;12.30;;
28481;SDS011;15703;49.588;6.260;2024-01-15T11:30:04;16.20;;;11.37;;
28481;SDS011;15703;49.588;6.260;2024-01-15T11:32:33;16.80;;;12.37;;
28481;SDS011;15703;49.588;6.260;2024-01-15T11:37:23;18.07;;;12.23;;
28481;SDS011;15703;49.588;6.260;2024-01-15T11:39:45;16.03;;;11.20;;
28481;SDS011;15703;49.588;6.260;2024-01-15T11:42:11;15.37;;;11.13;;
28481;SDS011;15703;49.588;6.260;2024-01-15T11:44:34;17.57;;;11.77;;
28481;SDS011;15703;49.588;6.260;2024-01-15T11:49:23;12.77;;;10.10;;
28481;SDS011;15703;49.588;6.260;2024-01-15T11:51:49;18.83;;;11.17;;
28481;SDS011;15703;49.588;6.260;2024-01-15T11:54:13;15.37;;;10.97;;
28481;SDS011;15703;49.588;6.260;2024-01-15T11:56:36;19.93;;;11.43;;
28481;SDS011;15703;49.588;6.260;2024-01-15T11:58:58;13.10;;;9.93;;
28481;SDS011;15703;49.588;6.260;2024-01-15T12:01:23;17.97;;;11.87;;
28481;SDS011;15703;49.588;6.260;2024-01-15T12:03:47;18.03;;;11.40;;
28481;SDS011;15703;49.588;6.260;2024-01-15T12:06:09;14.47;;;10.67;;
28481;SDS011;15703;49.588;6.260;2024-01-15T12:08:33;13.53;;;9.63;;
28481;SDS011;15703;49.588;6.260;2024-01-15T12:10:56;13.30;;;9.60;;
28481;SDS011;15703;49.588;6.260;2024-01-15T12:13:19;11.00;;;8.80;;
28481;SDS011;15703;49.588;6.260;2024-01-15T12:15:42;12.23;;;9.20;;
28481;SDS011;15703;49.588;6.260;2024-01-15T12:18:05;13.03;;;9.20;;
28481;SDS011;15703;49.588;6.260;2024-01-15T12:20:29;12.97;;;9.50;;
28481;SDS011;15703;49.588;6.260;2024-01-15T12:22:51;14.00;;;9.87;;
28481;SDS011;15703;49.588;6.260;2024-01-15T12:25:23;13.43;;;8.90;;
28481;SDS011;15703;49.588;6.260;2024-01-15T12:27:45;14.93;;;9.83;;
28481;SDS011;15703;49.588;6.260;2024-01-15T12:30:10;14.97;;;9.90;;
28481;SDS011;15703;49.588;6.260;2024-01-15T12:32:34;15.10;;;9.50;;
28481;SDS011;15703;49.588;6.260;2024-01-15T12:34:56;13.47;;;9.47;;
28481;SDS011;15703;49.588;6.260;2024-01-15T12:37:21;14.47;;;10.27;;
28481;SDS011;15703;49.588;6.260;2024-01-15T12:39:43;15.70;;;9.20;;
28481;SDS011;15703;49.588;6.260;2024-01-15T12:42:06;11.97;;;9.40;;
28481;SDS011;15703;49.588;6.260;2024-01-15T12:44:28;11.90;;;8.73;;
28481;SDS011;15703;49.588;6.260;2024-01-15T12:46:50;14.27;;;9.30;;
28481;SDS011;15703;49.588;6.260;2024-01-15T12:49:13;13.00;;;9.20;;
28481;SDS011;15703;49.588;6.260;2024-01-15T12:51:35;13.80;;;8.50;;
28481;SDS011;15703;49.588;6.260;2024-01-15T12:53:58;14.13;;;9.57;;
28481;SDS011;15703;49.588;6.260;2024-01-15T12:56:20;9.60;;;7.87;;
28481;SDS011;15703;49.588;6.260;2024-01-15T12:58:42;10.90;;;7.50;;
28481;SDS011;15703;49.588;6.260;2024-01-15T13:01:05;12.70;;;8.37;;
28481;SDS011;15703;49.588;6.260;2024-01-15T13:03:27;9.90;;;7.40;;
28481;SDS011;15703;49.588;6.260;2024-01-15T13:05:50;10.13;;;7.77;;
28481;SDS011;15703;49.588;6.260;2024-01-15T13:08:14;10.87;;;8.33;;
28481;SDS011;15703;49.588;6.260;2024-01-15T13:10:36;10.20;;;7.90;;
28481;SDS011;15703;49.588;6.260;2024-01-15T13:12:59;13.13;;;8.33;;
28481;SDS011;15703;49.588;6.260;2024-01-15T13:15:21;10.07;;;7.97;;
28481;SDS011;15703;49.588;6.260;2024-01-15T13:17:43;11.47;;;7.93;;
28481;SDS011;15703;49.588;6.260;2024-01-15T13:20:06;12.00;;;7.47;;
28481;SDS011;15703;49.588;6.260;2024-01-15T13:22:30;10.27;;;6.80;;
28481;SDS011;15703;49.588;6.260;2024-01-15T13:24:54;7.80;;;6.10;;
28481;SDS011;15703;49.588;6.260;2024-01-15T13:27:17;10.70;;;6.73;;
28481;SDS011;15703;49.588;6.260;2024-01-15T13:29:40;8.70;;;6.80;;
28481;SDS011;15703;49.588;6.260;2024-01-15T13:32:02;8.23;;;5.90;;
28481;SDS011;15703;49.588;6.260;2024-01-15T13:34:26;6.80;;;5.57;;
28481;SDS011;15703;49.588;6.260;2024-01-15T13:36:49;7.53;;;4.83;;
28481;SDS011;15703;49.588;6.260;2024-01-15T13:39:11;8.67;;;5.50;;
28481;SDS011;15703;49.588;6.260;2024-01-15T13:41:35;7.00;;;4.80;;
28481;SDS011;15703;49.588;6.260;2024-01-15T13:43:58;5.47;;;4.70;;
28481;SDS011;15703;49.588;6.260;2024-01-15T13:46:22;9.63;;;5.00;;
28481;SDS011;15703;49.588;6.260;2024-01-15T13:48:45;5.67;;;4.67;;
28481;SDS011;15703;49.588;6.260;2024-01-15T13:51:07;7.53;;;5.07;;
28481;SDS011;15703;49.588;6.260;2024-01-15T13:53:30;6.60;;;4.77;;
28481;SDS011;15703;49.588;6.260;2024-01-15T13:55:52;10.03;;;4.77;;
28481;SDS011;15703;49.588;6.260;2024-01-15T13:58:15;6.53;;;4.47;;
28481;SDS011;15703;49.588;6.260;2024-01-15T14:00:39;6.60;;;4.60;;
28481;SDS011;15703;49.588;6.260;2024-01-15T14:03:07;6.40;;;4.37;;
28481;SDS011;15703;49.588;6.260;2024-01-15T14:05:30;6.83;;;4.00;;
28481;SDS011;15703;49.588;6.260;2024-01-15T14:07:52;6.37;;;4.33;;
28481;SDS011;15703;49.588;6.260;2024-01-15T14:10:15;9.03;;;4.17;;
28481;SDS011;15703;49.588;6.260;2024-01-15T14:12:37;7.43;;;4.23;;
28481;SDS011;15703;49.588;6.260;2024-01-15T14:15:01;4.40;;;4.00;;
28481;SDS011;15703;49.588;6.260;2024-01-15T14:17:23;4.50;;;3.50;;
28481;SDS011;15703;49.588;6.260;2024-01-15T14:19:45;6.07;;;4.30;;
28481;SDS011;15703;49.588;6.260;2024-01-15T14:22:08;4.10;;;3.70;;
28481;SDS011;15703;49.588;6.260;2024-01-15T14:24:36;6.53;;;4.10;;
28481;SDS011;15703;49.588;6.260;2024-01-15T14:26:59;5.43;;;3.90;;
28481;SDS011;15703;49.588;6.260;2024-01-15T14:29:21;4.30;;;3.87;;